To NAV CANADA Home Page Login to a new session Search on AWWS site Feedback and Comments Disclaimer Vers la page française équivalente Tips FAQ What's new on the site To the Forecasts and Observations / NOTAM section To "File a Flight Plan" website Publications and other links Update of the User's profile FIC Telephone Numbers My Weather Data Folder Route Weather Data Regional Weather Data Local Weather Data To the Forecasts and Observations / NOTAM section
Request Generated 08/27/2016 at 04:32:53 UTC . Weather information available at that time is displayed.

METAR/TAF

FORT ST. JOHN/BC    

METAR CYXJ 270400Z 13005KT 15SM OVC075 16/14 A2954 RMK AC8 SLP012
DENSITY ALT 3300FT=
METAR CYXJ 270300Z 12004KT 15SM BKN082 BKN110 16/15 A2957 RMK AC5AC2
SLP020 DENSITY ALT 3300FT=
SPECI CYXJ 270234Z 13003KT 120V200 15SM FEW056 BKN080 BKN120 17/15
A2957 RMK SC1AC4AC2 SLP022 DENSITY ALT 3400FT=
METAR CYXJ 270200Z 27004KT 15SM -SHRA SCT056 OVC080 17/15 A2959 RMK
SC4AC4 SLP027 DENSITY ALT 3400FT=

TAF CYXJ 270038Z 2701/2713 21008KT P6SM BKN070 TEMPO 2701/2705 P6SM
-SHRA
FM270500 14008KT P6SM -RA SCT020 OVC040 TEMPO 2705/2711 5SM -RA
BR OVC020
FM271100 02006KT 6SM -RA BR SCT008 OVC025 TEMPO 2711/2713 2SM RA
BR OVC008
RMK NXT FCST BY 270700Z=
Your time UTC time
Weather data provided by Environment Canada and NAV CANADA